Harwood, ND

3:19 PM CDT on April 26, 2017 (GMT -0500)
Harwood Triangle | | Change Station
Active Advisory: Winter Weather Advisory

Elev 879 ft 46.98 °N, 96.88 °W | Updated 11 minutes ago

Snow
Snow
28.4 °F
Feels Like 28 °F
N
1.0
Wind Variable Wind from NNE
Gusts 7.0 mph

Today
High -- | Low -- °F
--% Chance of Precip.
Yesterday
High -- | Low -- °F
Precip. -- in
Pressure 29.74 in
Visibility 0.8 miles
Clouds Scattered Clouds 800 ft
Mostly Cloudy 1500 ft
Overcast 2200 ft
Windchill 28 °F
Dew Point 25 °F
Humidity 88%
Rainfall 0.00 in
Snow Depth Not available.
6:19 AM 8:31 PM
New Moon, 0% visible
SPECI KFAR 262000Z 36016KT 3/4SM -SN BR SCT008 BKN015 OVC022 M01/M02 A2974 RMK AO2 P0000 T10111022
Pressure 29.74 in
Visibility 0.8 miles
Clouds Scattered Clouds 800 ft
Mostly Cloudy 1500 ft
Overcast 2200 ft
Windchill 28 °F
Dew Point 25 °F
Humidity 88%
Rainfall 0.00 in
Snow Depth Not available.
6:19 AM 8:31 PM
New Moon, 0% visible
SPECI KFAR 262000Z 36016KT 3/4SM -SN BR SCT008 BKN015 OVC022 M01/M02 A2974 RMK AO2 P0000 T10111022

Get Your Daily Forecast Email!

Thanks for signing up!

Be on the lookout for a verification email in your inbox.

You'll start receiving severe weather alerts in your inbox..

×

10-Day Weather Forecast

Almanac

Astronomy

Apr. 26, 2017 Rise Set
Actual Time
Civil Twilight
Nautical Twilight
Astronomical Twilight
Moon
Length of Visible Light
Length of Day
Tomorrow will be .
, % of the Moon is Illuminated

Today's Extremes

State Highs State Lows

Community

WunderPhotos

WunderBlog® & News

Nearby

Air Quality

  Air Quality AQ Index Pollutant
Not available.

Snow Depth

Station Depth Elevation

Earthquake Activity

City Distance Mag. Time & Date
Minimum magnitude displayed is 2.5.

Coastal Water Temperatures

Place Temperature

Stations

Nearby Weather Stations

Station Location Temp. Windchill Dew Point Humidity Wind Precip. Elev Updated Type
                   

Watches & Warnings

Winter Weather Advisory
Issued: 1:57 PM CDT Apr. 26, 2017 – National Weather Service

... Winter Weather Advisory remains in effect until 7 PM CDT this
evening...

* timing... expect light snow to continue with possibly some sleet
or freezing rain mixing in. Precipitation will begin to diminish
by this evening.

* Snow and ice accumulations... additional snow accumulations of up
to 1 inch are expected with a glaze of ice accumulations
possible.

* Winds / visibilities... look for reduced visibilities at times in
the heaviest snow bands.


* Impacts... plan on slippery Road conditions... including during
the evening commute.

Precautionary/preparedness actions...

A Winter Weather Advisory means that periods of snow, sleet or
freezing rain will cause travel difficulties. Be prepared for
slippery roads and limited visibilities, and use caution while
driving. The latest Road conditions for the state you are calling
from can be obtained by calling 5 1 1.



Lee